createdAt,value
2019-02-15T00:02:28.536Z,5.40
2019-02-15T00:05:52.109Z,5.40
2019-02-15T00:09:15.726Z,5.40
2019-02-15T00:12:39.341Z,5.40
2019-02-15T00:16:02.980Z,5.30
2019-02-15T00:19:28.090Z,5.30
2019-02-15T00:22:51.599Z,5.30
2019-02-15T00:26:16.660Z,5.20
2019-02-15T00:29:40.556Z,5.20
2019-02-15T00:33:04.161Z,5.20
2019-02-15T00:36:27.639Z,5.20
2019-02-15T00:39:51.377Z,5.20
2019-02-15T00:43:22.146Z,5.20
2019-02-15T00:46:41.638Z,5.20
2019-02-15T00:50:08.951Z,5.10
2019-02-15T00:53:40.140Z,5.10
2019-02-15T00:57:14.209Z,5.10
2019-02-15T01:00:55.831Z,5.10
2019-02-15T01:04:21.020Z,5.10
2019-02-15T01:07:46.346Z,5.10
2019-02-15T01:11:14.618Z,5.10
2019-02-15T01:14:38.303Z,5.00
2019-02-15T01:18:01.883Z,5.00
2019-02-15T01:21:25.458Z,5.00
2019-02-15T01:24:48.961Z,5.00
2019-02-15T01:28:14.132Z,5.00
2019-02-15T01:31:47.851Z,5.00
2019-02-15T01:35:19.036Z,5.00
2019-02-15T01:38:46.878Z,5.00
2019-02-15T01:42:30.328Z,5.00
2019-02-15T01:45:55.493Z,5.00
2019-02-15T01:49:19.136Z,5.00
2019-02-15T01:52:42.711Z,5.00
2019-02-15T01:56:06.258Z,5.00
2019-02-15T01:59:29.846Z,5.00
2019-02-15T02:02:53.498Z,5.00
2019-02-15T02:06:17.110Z,5.00
2019-02-15T02:09:40.757Z,5.00
2019-02-15T02:13:04.533Z,4.90
2019-02-15T02:16:28.232Z,5.00
2019-02-15T02:19:51.899Z,5.00
2019-02-15T02:23:15.493Z,4.90
2019-02-15T02:26:39.158Z,4.90
2019-02-15T02:30:03.281Z,4.90
2019-02-15T02:33:26.834Z,4.90
2019-02-15T02:36:51.900Z,4.90
2019-02-15T02:40:15.493Z,4.90
2019-02-15T02:43:39.354Z,4.90
2019-02-15T02:47:02.937Z,4.90
2019-02-15T02:50:26.707Z,4.90
2019-02-15T02:53:50.419Z,4.80
2019-02-15T02:57:14.082Z,4.80
2019-02-15T03:00:37.671Z,4.80
2019-02-15T03:04:01.516Z,4.80
2019-02-15T03:07:25.074Z,4.80
2019-02-15T03:10:48.682Z,4.70
2019-02-15T03:14:12.388Z,4.70
2019-02-15T03:17:35.977Z,4.70
2019-02-15T03:20:59.514Z,4.70
2019-02-15T03:24:23.097Z,4.70
2019-02-15T03:27:46.675Z,4.70
2019-02-15T03:31:10.434Z,4.70
2019-02-15T03:34:36.202Z,4.70
2019-02-15T03:38:00.732Z,4.70
2019-02-15T03:41:28.522Z,4.80
2019-02-15T03:44:52.323Z,4.80
2019-02-15T03:48:15.858Z,4.80
2019-02-15T03:51:39.539Z,4.80
2019-02-15T03:55:03.819Z,4.80
2019-02-15T03:58:27.504Z,4.70
2019-02-15T04:01:51.127Z,4.70
2019-02-15T04:05:14.728Z,4.70
2019-02-15T04:08:38.348Z,4.70
2019-02-15T04:12:01.824Z,4.70
2019-02-15T04:15:25.395Z,4.70
2019-02-15T04:18:48.965Z,4.70
2019-02-15T04:22:12.510Z,4.70
2019-02-15T04:25:36.937Z,4.70
2019-02-15T04:29:00.473Z,4.70
2019-02-15T04:32:24.136Z,4.70
2019-02-15T04:35:47.769Z,4.70
2019-02-15T04:39:11.532Z,4.70
2019-02-15T04:42:35.111Z,4.70
2019-02-15T04:45:58.703Z,4.70
2019-02-15T04:49:22.232Z,4.70
2019-02-15T04:52:45.942Z,4.70
2019-02-15T04:56:09.777Z,4.70
2019-02-15T04:59:33.480Z,4.70
2019-02-15T05:02:57.954Z,4.70
2019-02-15T05:06:21.621Z,4.70
2019-02-15T05:09:45.406Z,4.70
2019-02-15T05:13:09.005Z,4.70
2019-02-15T05:16:32.520Z,4.70
2019-02-15T05:19:56.113Z,4.70
2019-02-15T05:23:19.688Z,4.70
2019-02-15T05:26:43.486Z,4.70
2019-02-15T05:30:08.507Z,4.60
2019-02-15T05:33:32.259Z,4.60
2019-02-15T05:36:55.741Z,4.60
2019-02-15T05:40:19.422Z,4.60
2019-02-15T05:43:42.973Z,4.60
2019-02-15T05:47:06.553Z,4.60
2019-02-15T05:50:30.169Z,4.60
2019-02-15T05:53:53.698Z,4.60
2019-02-15T05:57:17.413Z,4.60
2019-02-15T06:00:41.396Z,4.60
2019-02-15T06:04:04.939Z,4.60
2019-02-15T06:07:28.481Z,4.60
2019-02-15T06:10:52.094Z,4.50
2019-02-15T06:14:16.261Z,4.50
2019-02-15T06:17:39.815Z,4.50
2019-02-15T06:21:03.539Z,4.50
2019-02-15T06:24:27.223Z,4.50
2019-02-15T06:27:50.652Z,4.50
2019-02-15T06:31:14.785Z,4.50
2019-02-15T06:34:38.333Z,4.50
2019-02-15T06:38:01.916Z,4.50
2019-02-15T06:41:25.683Z,4.50
2019-02-15T06:44:49.242Z,4.50
2019-02-15T06:48:12.968Z,4.50
2019-02-15T06:51:36.527Z,4.50
2019-02-15T06:55:00.284Z,4.50
2019-02-15T06:58:23.988Z,4.60
2019-02-15T07:01:52.137Z,4.60
2019-02-15T07:05:20.153Z,4.60
2019-02-15T07:08:43.783Z,4.60
2019-02-15T07:12:07.264Z,4.60
2019-02-15T07:15:33.966Z,4.70
2019-02-15T07:18:57.103Z,4.70
2019-02-15T07:22:20.643Z,4.80
2019-02-15T07:25:44.208Z,4.90
2019-02-15T07:29:07.887Z,4.90
2019-02-15T07:32:32.218Z,4.90
2019-02-15T07:35:56.193Z,5.00
2019-02-15T07:39:19.856Z,4.90
2019-02-15T07:42:43.851Z,4.90
2019-02-15T07:46:07.482Z,5.00
2019-02-15T07:49:31.191Z,5.10
2019-02-15T07:52:54.738Z,5.10
2019-02-15T07:56:18.278Z,5.20
2019-02-15T07:59:41.926Z,5.40
2019-02-15T08:03:05.396Z,5.50
2019-02-15T08:06:29.025Z,5.50
2019-02-15T08:09:52.651Z,5.50
2019-02-15T08:13:16.198Z,5.40
2019-02-15T08:16:40.472Z,5.50
2019-02-15T08:20:06.004Z,5.50
2019-02-15T08:23:30.864Z,5.50
2019-02-15T08:26:54.624Z,5.60
2019-02-15T08:30:18.369Z,5.50
2019-02-15T08:33:44.518Z,5.60
2019-02-15T08:37:09.174Z,5.60
2019-02-15T08:40:32.599Z,5.70
2019-02-15T08:43:56.371Z,5.80
2019-02-15T08:47:21.578Z,5.90
2019-02-15T08:50:45.129Z,5.90
2019-02-15T08:54:08.651Z,5.70
2019-02-15T08:57:32.303Z,5.60
2019-02-15T09:00:55.929Z,5.60
2019-02-15T09:04:19.453Z,5.60
2019-02-15T09:07:42.977Z,5.70
2019-02-15T09:11:06.771Z,6.00
2019-02-15T09:14:30.436Z,5.90
2019-02-15T09:17:54.004Z,5.90
2019-02-15T09:21:18.408Z,5.90
2019-02-15T09:24:41.981Z,6.00
2019-02-15T09:28:13.026Z,6.30
2019-02-15T09:31:36.583Z,6.10
2019-02-15T09:35:00.164Z,6.30
2019-02-15T09:38:24.067Z,6.50
2019-02-15T09:41:47.748Z,6.70
2019-02-15T09:45:12.467Z,6.80
2019-02-15T09:48:37.583Z,7.20
2019-02-15T09:52:01.321Z,7.60
2019-02-15T09:55:24.898Z,8.00
2019-02-15T09:58:48.506Z,8.40
2019-02-15T10:02:12.144Z,10.00
2019-02-15T10:05:35.638Z,10.00
2019-02-15T10:08:59.343Z,10.40
2019-02-15T10:12:23.016Z,9.20
2019-02-15T10:15:46.684Z,9.30
2019-02-15T10:19:10.349Z,13.60
2019-02-15T10:22:33.915Z,14.30
2019-02-15T10:25:57.471Z,14.50
2019-02-15T10:29:21.183Z,14.70
2019-02-15T10:32:44.919Z,17.50
2019-02-15T10:36:08.708Z,16.40
2019-02-15T10:39:32.176Z,11.60
2019-02-15T10:42:55.784Z,11.50
2019-02-15T10:46:20.094Z,11.50
2019-02-15T10:49:43.891Z,11.60
2019-02-15T10:53:07.519Z,12.70
2019-02-15T10:56:30.994Z,12.50
2019-02-15T10:59:54.544Z,14.50
2019-02-15T11:03:18.316Z,14.70
2019-02-15T11:06:41.921Z,12.10
2019-02-15T11:10:08.308Z,11.20
2019-02-15T11:13:31.848Z,10.30
2019-02-15T11:16:55.511Z,9.60
2019-02-15T11:20:19.455Z,9.50
2019-02-15T11:23:43.073Z,9.30
2019-02-15T11:27:06.719Z,9.00
2019-02-15T11:30:30.621Z,9.10
2019-02-15T11:33:54.223Z,9.30
2019-02-15T11:37:17.880Z,9.10
2019-02-15T11:40:41.874Z,10.20
2019-02-15T11:44:05.512Z,9.90
2019-02-15T11:47:29.141Z,10.20
2019-02-15T11:50:52.951Z,10.00
2019-02-15T11:54:23.392Z,9.40
2019-02-15T11:57:41.885Z,10.90
2019-02-15T12:01:06.331Z,14.20
2019-02-15T12:04:30.023Z,14.90
2019-02-15T12:07:53.729Z,15.60
2019-02-15T12:11:17.722Z,14.10
2019-02-15T12:14:41.111Z,15.00
2019-02-15T12:18:37.159Z,13.50
2019-02-15T12:22:01.069Z,13.60
2019-02-15T12:25:24.490Z,14.60
2019-02-15T12:28:48.236Z,13.10
2019-02-15T12:32:11.812Z,12.00
2019-02-15T12:35:35.290Z,11.20
2019-02-15T12:38:59.229Z,11.10
2019-02-15T12:42:23.568Z,11.70
2019-02-15T12:45:47.305Z,12.10
2019-02-15T12:49:10.948Z,12.70
2019-02-15T12:52:34.451Z,12.20
2019-02-15T12:55:58.219Z,11.50
2019-02-15T12:59:21.862Z,12.50
2019-02-15T13:02:45.317Z,12.70
2019-02-15T13:06:09.903Z,13.20
2019-02-15T13:09:33.544Z,13.70
2019-02-15T13:12:57.215Z,12.40
2019-02-15T13:16:20.637Z,13.60
2019-02-15T13:19:44.267Z,14.90
2019-02-15T13:23:08.159Z,15.20
2019-02-15T13:26:31.787Z,15.50
2019-02-15T13:29:55.421Z,15.90
2019-02-15T13:33:19.122Z,15.40
2019-02-15T13:36:42.874Z,14.60
2019-02-15T13:40:08.707Z,14.20
2019-02-15T13:43:32.885Z,13.70
2019-02-15T13:46:56.875Z,14.10
2019-02-15T13:50:20.456Z,14.70
2019-02-15T13:53:43.997Z,15.00
2019-02-15T13:57:07.752Z,15.10
2019-02-15T14:00:31.295Z,14.10
2019-02-15T14:03:56.197Z,14.20
2019-02-15T14:07:20.450Z,13.70
2019-02-15T14:10:44.311Z,13.20
2019-02-15T14:14:07.916Z,13.00
2019-02-15T14:17:31.821Z,12.70
2019-02-15T14:20:55.461Z,12.20
2019-02-15T14:24:19.241Z,11.50
2019-02-15T14:27:43.383Z,11.50
2019-02-15T14:31:06.972Z,11.60
2019-02-15T14:34:30.595Z,12.10
2019-02-15T14:37:54.546Z,12.30
2019-02-15T14:41:18.261Z,12.20
2019-02-15T14:44:42.046Z,11.70
2019-02-15T14:48:05.701Z,11.60
2019-02-15T14:51:31.556Z,11.50
2019-02-15T14:54:55.098Z,11.20
2019-02-15T14:58:18.658Z,10.80
2019-02-15T15:01:42.370Z,10.60
2019-02-15T15:05:06.434Z,10.30
2019-02-15T15:08:30.794Z,9.80
2019-02-15T15:11:54.525Z,9.40
2019-02-15T15:15:18.279Z,8.90
2019-02-15T15:18:42.583Z,8.60
2019-02-15T15:22:06.223Z,8.30
2019-02-15T15:25:29.941Z,8.10
2019-02-15T15:28:53.515Z,7.80
2019-02-15T15:32:17.401Z,7.70
2019-02-15T15:35:41.180Z,7.40
2019-02-15T15:39:05.527Z,7.20
2019-02-15T15:42:29.238Z,7.00
2019-02-15T15:45:53.097Z,6.70
2019-02-15T15:49:16.913Z,6.50
2019-02-15T15:52:40.658Z,6.20
2019-02-15T15:56:04.254Z,5.80
2019-02-15T15:59:28.022Z,5.60
2019-02-15T16:02:52.326Z,5.30
2019-02-15T16:06:24.195Z,5.00
2019-02-15T16:09:41.560Z,4.80
2019-02-15T16:13:05.409Z,4.60
2019-02-15T16:16:29.129Z,4.50
2019-02-15T16:19:52.866Z,4.30
2019-02-15T16:23:16.626Z,4.20
2019-02-15T16:26:40.343Z,4.10
2019-02-15T16:30:04.889Z,3.90
2019-02-15T16:33:28.438Z,3.90
2019-02-15T16:36:52.131Z,3.70
2019-02-15T16:40:16.252Z,3.60
2019-02-15T16:43:40.024Z,3.50
2019-02-15T16:47:03.733Z,3.30
2019-02-15T16:50:29.147Z,3.30
2019-02-15T16:53:52.960Z,3.20
2019-02-15T16:57:16.522Z,3.10
2019-02-15T17:00:40.199Z,3.00
2019-02-15T17:04:03.886Z,3.10
2019-02-15T17:07:27.521Z,3.10
2019-02-15T17:10:51.141Z,3.10
2019-02-15T17:14:15.269Z,3.00
2019-02-15T17:17:38.828Z,3.10
2019-02-15T17:21:02.356Z,3.20
2019-02-15T17:24:26.072Z,3.20
2019-02-15T17:27:49.782Z,3.20
2019-02-15T17:31:13.499Z,3.30
2019-02-15T17:34:37.081Z,3.10
2019-02-15T17:38:01.072Z,3.10
2019-02-15T17:41:25.587Z,3.10
2019-02-15T17:44:49.042Z,2.90
2019-02-15T17:48:13.458Z,2.90
2019-02-15T17:51:36.896Z,3.00
2019-02-15T17:55:00.594Z,2.90
2019-02-15T17:58:24.475Z,2.90
2019-02-15T18:01:48.495Z,2.80
2019-02-15T18:05:17.663Z,2.80
2019-02-15T18:08:41.336Z,2.80
2019-02-15T18:12:04.987Z,2.90
2019-02-15T18:15:28.979Z,2.90
2019-02-15T18:18:52.550Z,3.10
2019-02-15T18:22:16.662Z,3.30
2019-02-15T18:25:40.370Z,3.40
2019-02-15T18:29:04.018Z,3.50
2019-02-15T18:32:27.879Z,3.50
2019-02-15T18:35:51.562Z,3.40
2019-02-15T18:39:15.342Z,3.40
2019-02-15T18:42:38.949Z,3.30
2019-02-15T18:46:02.556Z,3.30
2019-02-15T18:49:26.333Z,3.20
2019-02-15T18:52:49.890Z,3.10
2019-02-15T18:56:14.119Z,3.20
2019-02-15T18:59:38.245Z,3.10
2019-02-15T19:03:02.483Z,3.20
2019-02-15T19:06:26.280Z,3.10
2019-02-15T19:09:49.871Z,3.00
2019-02-15T19:13:13.394Z,2.90
2019-02-15T19:16:37.090Z,2.80
2019-02-15T19:20:00.679Z,2.90
2019-02-15T19:23:24.640Z,2.70
2019-02-15T19:26:48.404Z,2.80
2019-02-15T19:30:18.228Z,2.80
2019-02-15T19:33:42.150Z,2.80
2019-02-15T19:37:06.133Z,2.70
2019-02-15T19:40:30.307Z,2.60
2019-02-15T19:43:54.198Z,2.50
2019-02-15T19:47:17.936Z,2.30
2019-02-15T19:50:41.687Z,2.10
2019-02-15T19:54:05.638Z,2.00
2019-02-15T19:57:29.507Z,1.90
2019-02-15T20:00:53.745Z,1.80
2019-02-15T20:04:18.287Z,1.80
2019-02-15T20:07:41.897Z,1.80
2019-02-15T20:11:06.039Z,1.90
2019-02-15T20:14:29.730Z,2.00
2019-02-15T20:17:53.374Z,1.90
2019-02-15T20:21:16.947Z,1.90
2019-02-15T20:24:40.627Z,1.80
2019-02-15T20:28:13.343Z,1.70
2019-02-15T20:31:29.575Z,1.60
2019-02-15T20:34:53.964Z,1.60
2019-02-15T20:38:17.760Z,1.60
2019-02-15T20:41:41.418Z,1.50
2019-02-15T20:45:19.815Z,1.50
2019-02-15T20:48:43.697Z,1.50
2019-02-15T20:52:08.023Z,1.50
2019-02-15T20:55:32.283Z,1.60
2019-02-15T20:58:55.834Z,1.60
2019-02-15T21:02:19.703Z,1.60
2019-02-15T21:05:43.521Z,1.60
2019-02-15T21:09:07.238Z,1.60
2019-02-15T21:12:30.975Z,1.80
2019-02-15T21:15:57.629Z,1.80
2019-02-15T21:19:21.492Z,1.80
2019-02-15T21:22:45.370Z,1.70
2019-02-15T21:26:09.155Z,1.70
2019-02-15T21:29:32.806Z,1.80
2019-02-15T21:32:56.319Z,1.70
2019-02-15T21:36:20.196Z,1.60
2019-02-15T21:39:43.831Z,1.60
2019-02-15T21:43:07.599Z,1.60
2019-02-15T21:46:31.238Z,1.60
2019-02-15T21:49:54.964Z,1.50
2019-02-15T21:53:18.664Z,1.50
2019-02-15T21:56:42.409Z,1.40
2019-02-15T22:00:14.686Z,1.50
2019-02-15T22:03:38.442Z,1.30
2019-02-15T22:07:01.972Z,1.30
2019-02-15T22:10:25.563Z,1.20
2019-02-15T22:13:49.047Z,1.20
2019-02-15T22:17:12.793Z,1.00
2019-02-15T22:20:36.464Z,1.00
2019-02-15T22:24:00.038Z,0.90
2019-02-15T22:27:23.578Z,0.90
2019-02-15T22:30:47.191Z,0.70
2019-02-15T22:34:10.769Z,0.70
2019-02-15T22:37:34.438Z,0.80
2019-02-15T22:41:01.391Z,0.50
2019-02-15T22:44:25.098Z,0.10
2019-02-15T22:47:48.756Z,-0.10
2019-02-15T22:51:12.346Z,-0.20
2019-02-15T22:54:36.160Z,-0.20
2019-02-15T22:57:59.739Z,-0.20
2019-02-15T23:01:23.987Z,-0.20
2019-02-15T23:04:47.617Z,-0.20
2019-02-15T23:08:11.275Z,-0.10
2019-02-15T23:11:34.869Z,-0.10
2019-02-15T23:14:58.641Z,-0.20
2019-02-15T23:18:22.203Z,-0.30
2019-02-15T23:21:45.954Z,-0.30
2019-02-15T23:25:09.466Z,0.00
2019-02-15T23:28:33.469Z,-0.20
2019-02-15T23:31:57.109Z,-0.20
2019-02-15T23:35:20.638Z,-0.40
2019-02-15T23:38:44.151Z,-0.40
2019-02-15T23:42:07.714Z,-0.30
2019-02-15T23:45:31.296Z,-0.40
2019-02-15T23:48:54.832Z,-0.40
2019-02-15T23:52:18.378Z,-0.30
2019-02-15T23:55:42.131Z,-0.30
2019-02-15T23:59:06.903Z,-0.30
